Hilo, Hawaii
Current Conditions -  °F | °C
As of 3:43 PM on Tuesday 25 Nov 2014 (Local Time) from PHTO Reporting Station
Light Rain Light Rain  
Wind Chill: 22°   Ceiling: 1700
Heat Index: 22°   Visibility: 2mi
Dew Point: 21°   Wind: 8mph
Humidity: 96%   Direction: 20°NNE
Pressure: 29.98"   Gusts: NA
Location:  19.72°N, 155.08°W
Report Text: PHTO 260143Z 02007KT 2SM -RA BR BKN017 BKN022 OVC029 22/21 A2998 RMK AO2 TWR VIS 2 1/2 RAE07B33 P0000 T02170211 $
Loading
Personal Weather Stations






























Interactive Weather Map New forecast layout! Learn more

10-Day Weather Forecast

Advertisements
Track Severe Weather on mobile